Bookmark and Share
Track history (hours):
 

Drifting buoy 41997

Last reported at 2014-Apr-20 20:00 UTC. Time now 2014-Apr-20 21:00 UTC.
Position N 41°03' W 035°54'.

Water temperature 15.2 ° C

NotesDate/timePositionNaut miles runAvg speedWind from/ knotsBaromVisibWave heightAir tempDewpointWater temp
2014-Apr-20 20:00N 41°03' W 035°54'0 0.0 15.2
2014-Apr-20 19:45N 41°03' W 035°54'0 0.0 15.2
2014-Apr-20 19:30N 41°03' W 035°54'0 0.0 15.2
2014-Apr-20 19:15N 41°03' W 035°54'0 0.1 15.2
2014-Apr-20 18:30N 41°03' W 035°53'2 8.5 15.2
2014-Apr-20 18:15N 41°01' W 035°56'1 6.0 15.2
2014-Apr-20 18:00N 41°02' W 035°54'1 2.0 15.2
2014-Apr-20 17:15N 41°01' W 035°56'0 0.0 15.2
2014-Apr-20 17:00N 41°01' W 035°56'2 1.4 15.2
2014-Apr-20 15:30N 41°00' W 035°58'0 0.0 15.2
2014-Apr-20 15:15N 41°00' W 035°58'2 1.3 15.2
2014-Apr-20 13:45N 40°58' W 035°59'0 0.2 15.2
2014-Apr-20 13:00N 40°58' W 035°58'1 2.1 15.2
2014-Apr-20 12:45N 40°58' W 035°59'1 1.1 15.2
2014-Apr-20 12:00N 40°58' W 035°60'0 0.0 15.2
2014-Apr-20 11:45N 40°58' W 035°60'1 1.0 15.2
2014-Apr-20 11:15N 40°58' W 035°60'0 0.0 15.2
2014-Apr-20 11:00N 40°58' W 035°60'1 0.7 15.2
2014-Apr-20 09:00N 40°57' W 036°01'0 0.0 15.1
2014-Apr-20 08:45N 40°57' W 036°01'0 1.0 15.1
2014-Apr-20 08:30N 40°56' W 036°01'0 0.2 15.1
2014-Apr-20 07:15N 40°56' W 036°01'1 3.6 15.1
2014-Apr-20 07:00N 40°56' W 036°03'0 0.0 15.1
2014-Apr-20 06:45N 40°56' W 036°03'0 0.0 15.1
2014-Apr-20 05:45N 40°56' W 036°03'0 0.3 15.1
2014-Apr-20 05:30N 40°56' W 036°03'1 3.9 15.1
2014-Apr-20 05:15N 40°56' W 036°04'2 1.8 15.1
2014-Apr-20 04:00N 40°54' W 036°06'0 0.0 15.1
2014-Apr-20 03:45N 40°54' W 036°06'0 0.0 15.2
2014-Apr-20 00:30N 40°54' W 036°06'0 0.2 15.2
2014-Apr-19 23:45N 40°54' W 036°05'0 0.2 15.2
2014-Apr-19 23:00N 40°54' W 036°05'0 0.0 15.2
2014-Apr-19 22:45N 40°54' W 036°05'0 0.4 15.2
2014-Apr-19 22:00N 40°53' W 036°05'0 0.7 15.2
2014-Apr-19 21:45N 40°54' W 036°05'0 0.4 15.2
2014-Apr-19 21:15N 40°53' W 036°05'0 0.4 15.2
2014-Apr-19 20:15N 40°53' W 036°05'0 1.5 15.2
2014-Apr-19 20:00N 40°53' W 036°05'0 0.0 15.2
2014-Apr-19 19:45N 40°53' W 036°05'0 0.0 15.2
2014-Apr-19 18:45N 40°53' W 036°05'0 0.0 15.3
2014-Apr-19 18:30N 40°53' W 036°05'1 0.6 15.3
2014-Apr-19 17:15N 40°53' W 036°06'0 0.9 15.3
2014-Apr-19 17:00N 40°53' W 036°05'0 0.0 15.3
2014-Apr-19 16:45N 40°53' W 036°05'0 0.5 15.3
2014-Apr-19 15:45N 40°53' W 036°05'0 0.0 15.3
2014-Apr-19 15:30N 40°53' W 036°05'0 0.0 15.2
2014-Apr-19 14:00N 40°53' W 036°05'1 0.8 15.2
2014-Apr-19 13:15N 40°53' W 036°05'0 0.0 15.2
2014-Apr-19 13:00N 40°53' W 036°05'0 0.4 15.2
2014-Apr-19 12:15N 40°53' W 036°05'0 0.5 15.2
2014-Apr-19 11:30N 40°53' W 036°05'0 0.0 15.2
2014-Apr-19 11:15N 40°53' W 036°05'0 0.3 15.2
2014-Apr-19 10:30N 40°53' W 036°05'0 0.0 15.2
2014-Apr-19 09:30N 40°53' W 036°05'0 1.0 15.2
2014-Apr-19 09:15N 40°53' W 036°05'1 2.5 15.2
2014-Apr-19 09:00N 40°53' W 036°05'1 2.4 15.2
2014-Apr-19 08:45N 40°53' W 036°05'0 0.0 15.2
2014-Apr-19 07:45N 40°53' W 036°05'1 1.1 15.2
2014-Apr-19 07:15N 40°54' W 036°06'0 1.8 15.2
2014-Apr-19 07:00N 40°53' W 036°06'0 0.0 15.2
2014-Apr-19 06:15N 40°53' W 036°06'0 0.0 15.2
2014-Apr-19 06:00N 40°53' W 036°06'0 1.9 15.2
2014-Apr-19 05:45N 40°53' W 036°06'0 0.0 15.1
2014-Apr-19 05:30N 40°53' W 036°06'0 0.3 15.1
2014-Apr-19 04:15N 40°53' W 036°07'2 8.0 15.2
2014-Apr-19 04:00N 40°51' W 036°08'0 0.0 15.2
2014-Apr-19 00:45N 40°51' W 036°08'0 0.3 15.2
2014-Apr-19 00:00N 40°51' W 036°08'0 0.1 15.2
2014-Apr-18 23:15N 40°51' W 036°08'1 2.0 15.1
2014-Apr-18 23:00N 40°51' W 036°07'0 0.0 15.1
2014-Apr-18 22:30N 40°51' W 036°07'1 2.3 15.2
2014-Apr-18 22:15N 40°51' W 036°07'0 0.2 15.2
2014-Apr-18 20:45N 40°50' W 036°07'0 0.0 15.2
2014-Apr-18 20:30N 40°50' W 036°07'0 0.0 15.2
2014-Apr-18 19:00N 40°50' W 036°07'0 0.0 15.2
2014-Apr-18 18:45N 40°50' W 036°07'0 0.0 15.2
2014-Apr-18 17:30N 40°50' W 036°07'0 0.7 15.2
2014-Apr-18 17:15N 40°50' W 036°07'0 1.1 15.2
2014-Apr-18 17:00N 40°50' W 036°07'0 0.0 15.2
2014-Apr-18 15:45N 40°50' W 036°07'0 0.2 15.1
2014-Apr-18 14:15N 40°50' W 036°07'0 0.0 15.6
2014-Apr-18 14:00N 40°50' W 036°07'1 2.0 15.7
2014-Apr-18 13:30N 40°51' W 036°06'0 0.9 15.8
2014-Apr-18 13:15N 40°51' W 036°05'0 0.6 15.8
2014-Apr-18 12:45N 40°51' W 036°05'1 2.6 15.8
2014-Apr-18 12:30N 40°52' W 036°06'1 0.7 15.8
2014-Apr-18 11:45N 40°52' W 036°05'1 4.8 15.9
2014-Apr-18 11:30N 40°53' W 036°04'1 1.3 15.9
2014-Apr-18 11:00N 40°53' W 036°03'0 0.0 15.9
2014-Apr-18 09:15N 40°53' W 036°03'1 3.3 15.9
2014-Apr-18 09:00N 40°53' W 036°04'0 0.0 15.9
2014-Apr-18 08:15N 40°53' W 036°04'0 0.5 15.9
2014-Apr-18 07:45N 40°54' W 036°04'0 0.3 15.9
2014-Apr-18 07:30N 40°54' W 036°04'1 2.2 15.9
2014-Apr-18 07:15N 40°54' W 036°04'0 0.0 15.9
2014-Apr-18 06:45N 40°54' W 036°04'0 0.0 15.9
2014-Apr-18 06:30N 40°54' W 036°04'0 0.4 15.9
2014-Apr-18 06:00N 40°54' W 036°04'1 2.5 15.9
2014-Apr-18 05:45N 40°55' W 036°05'0 0.0 15.9
2014-Apr-18 05:30N 40°55' W 036°05'0 0.0 15.9
2014-Apr-18 04:30N 40°55' W 036°05'0 1.7 15.9
2014-Apr-18 04:15N 40°55' W 036°05'1 0.2 15.9
2014-Apr-18 01:00N 40°55' W 036°06'0 0.0 15.9
2014-Apr-18 00:30N 40°55' W 036°06'0 0.0 15.9
2014-Apr-18 00:15N 40°55' W 036°06'1 1.8 15.9
2014-Apr-17 23:45N 40°56' W 036°07'0 2.0 15.9
2014-Apr-17 23:30N 40°55' W 036°07'0 0.0 15.9
2014-Apr-17 23:15N 40°55' W 036°07'0 0.4 15.9
2014-Apr-17 23:00N 40°55' W 036°07'1 5.2 15.9
2014-Apr-17 22:45N 40°56' W 036°08'0 0.0 15.9
2014-Apr-17 22:30N 40°56' W 036°08'0 0.0 15.9
2014-Apr-17 21:30N 40°56' W 036°08'0 0.0 15.9
2014-Apr-17 21:00N 40°56' W 036°08'0 0.1 15.9
2014-Apr-17 19:30N 40°57' W 036°09'0 0.2 15.8
2014-Apr-17 19:15N 40°57' W 036°09'0 0.0 15.8
2014-Apr-17 19:00N 40°57' W 036°09'1 0.8 15.8
2014-Apr-17 17:15N 40°57' W 036°10'2 0.7 15.6
2014-Apr-17 14:15N 40°58' W 036°13'1 2.1 15.1
2014-Apr-17 13:45N 40°58' W 036°14'1 2.5 15.0
2014-Apr-17 13:30N 40°59' W 036°14'0 0.0 15.0
2014-Apr-17 13:15N 40°59' W 036°14'0 1.0 15.0
2014-Apr-17 13:00N 40°59' W 036°13'0 0.1 15.0
2014-Apr-17 12:15N 40°59' W 036°13'1 1.6 15.0
2014-Apr-17 11:45N 40°60' W 036°13'1 2.0 15.0
2014-Apr-17 11:15N 41°00' W 036°14'1 0.8 15.0
2014-Apr-17 09:45N 41°00' W 036°12'0 0.0 15.0
2014-Apr-17 09:00N 41°00' W 036°12'0 0.0 15.0
2014-Apr-17 08:45N 41°00' W 036°12'1 1.3 15.0
2014-Apr-17 08:00N 41°01' W 036°11'1 1.5 15.1
2014-Apr-17 07:30N 41°01' W 036°11'0 0.2 15.1
2014-Apr-17 07:15N 41°01' W 036°11'0 0.0 15.1
2014-Apr-17 07:00N 41°01' W 036°11'0 0.5 15.1
2014-Apr-17 06:30N 41°01' W 036°11'1 3.0 15.1
2014-Apr-17 06:15N 41°02' W 036°10'0 0.0 15.1
2014-Apr-17 06:00N 41°02' W 036°10'1 2.9 15.1
2014-Apr-17 05:45N 41°03' W 036°10'1 0.9 15.1
2014-Apr-17 04:30N 41°03' W 036°09'0 0.0 15.1
2014-Apr-17 02:45N 41°03' W 036°09'0 0.0 15.1
2014-Apr-17 01:00N 41°03' W 036°09'1 3.1 15.1
2014-Apr-17 00:45N 41°04' W 036°08'0 0.0 15.1
2014-Apr-17 00:30N 41°04' W 036°08'0 0.4 15.1
2014-Apr-17 00:00N 41°04' W 036°08'0 0.0 15.1
2014-Apr-16 23:45N 41°04' W 036°08'0 0.9 15.1
2014-Apr-16 23:30N 41°04' W 036°08'0 1.5 15.2
2014-Apr-16 23:15N 41°04' W 036°07'1 3.1 15.2
2014-Apr-16 23:00N 41°04' W 036°06'0 0.0 15.2
2014-Apr-16 22:15N 41°04' W 036°06'0 0.0 15.2
2014-Apr-16 21:45N 41°04' W 036°06'0 0.1 15.1
2014-Apr-16 20:00N 41°04' W 036°06'1 2.8 15.2
2014-Apr-16 19:45N 41°04' W 036°06'0 0.0 15.2
2014-Apr-16 19:15N 41°04' W 036°06'0 0.0 15.2
2014-Apr-16 19:00N 41°04' W 036°06'0 0.2 15.2
2014-Apr-16 18:15N 41°05' W 036°06'0 0.0 15.2
2014-Apr-16 18:00N 41°05' W 036°06'0 0.1 15.2
2014-Apr-16 17:30N 41°05' W 036°06'0 0.0 15.2
2014-Apr-16 17:15N 41°05' W 036°06'1 0.7 15.2
2014-Apr-16 16:15N 41°05' W 036°05'0 0.1 15.2
2014-Apr-16 14:30N 41°05' W 036°05'0 0.1 15.2
2014-Apr-16 13:45N 41°05' W 036°05'0 0.0 15.2
2014-Apr-16 13:30N 41°05' W 036°05'0 0.0 15.2
2014-Apr-16 13:15N 41°05' W 036°05'0 0.1 15.2
2014-Apr-16 12:45N 41°05' W 036°05'0 0.7 15.2
2014-Apr-16 12:30N 41°05' W 036°05'0 0.2 15.2
2014-Apr-16 12:00N 41°05' W 036°05'0 0.9 15.2
2014-Apr-16 11:45N 41°05' W 036°05'0 0.0 15.2
2014-Apr-16 11:30N 41°05' W 036°05'1 0.9 15.2
2014-Apr-16 10:15N 41°04' W 036°04'0 0.0 15.2
2014-Apr-16 09:30N 41°04' W 036°04'0 0.0 15.2
2014-Apr-16 09:15N 41°04' W 036°04'1 0.7 15.2
2014-Apr-16 07:45N 41°05' W 036°04'0 0.0 15.1
2014-Apr-16 07:30N 41°05' W 036°04'0 0.0 15.1
2014-Apr-16 07:00N 41°05' W 036°04'0 0.3 15.1
2014-Apr-16 06:45N 41°05' W 036°04'0 0.6 15.1
2014-Apr-16 06:30N 41°05' W 036°04'0 1.1 15.1
2014-Apr-16 06:15N 41°05' W 036°04'1 3.1 15.1
2014-Apr-16 06:00N 41°06' W 036°05'0 0.3 15.1
2014-Apr-16 04:45N 41°05' W 036°05'0 0.0 15.1
2014-Apr-16 04:30N 41°05' W 036°05'0 0.0 15.1
2014-Apr-16 03:00N 41°05' W 036°05'0 0.0 15.2
2014-Apr-16 01:00N 41°05' W 036°05'0 0.0 15.3
2014-Apr-15 23:45N 41°05' W 036°05'1 1.0 15.4
2014-Apr-15 23:15N 41°05' W 036°06'0 0.3 15.4
2014-Apr-15 22:45N 41°05' W 036°05'0 1.6 15.5
2014-Apr-15 22:30N 41°05' W 036°05'1 1.4 15.5
2014-Apr-15 22:00N 41°05' W 036°04'0 1.5 15.5
2014-Apr-15 21:45N 41°05' W 036°04'0 0.3 15.4
2014-Apr-15 20:30N 41°05' W 036°04'0 1.3 15.3
2014-Apr-15 20:15N 41°06' W 036°04'0 0.0 15.3
2014-Apr-15 19:15N 41°06' W 036°04'0 0.0 15.3
2014-Apr-15 18:45N 41°06' W 036°04'1 0.6 15.2
2014-Apr-15 17:45N 41°06' W 036°05'0 0.0 15.2
2014-Apr-15 17:30N 41°06' W 036°05'1 1.1 15.3
2014-Apr-15 16:45N 41°06' W 036°04'0 0.0 15.3
2014-Apr-15 16:30N 41°06' W 036°04'1 2.5 15.3
2014-Apr-15 16:15N 41°06' W 036°05'0 0.0 15.3
2014-Apr-15 16:00N 41°06' W 036°05'1 0.6 15.3
2014-Apr-15 14:45N 41°06' W 036°04'0 0.0 15.3
2014-Apr-15 14:30N 41°06' W 036°04'1 1.7 15.3
2014-Apr-15 13:45N 41°06' W 036°06'0 0.3 15.3
2014-Apr-15 13:00N 41°06' W 036°06'0 0.0 15.3
2014-Apr-15 12:45N 41°06' W 036°06'1 2.6 15.3
2014-Apr-15 12:15N 41°06' W 036°07'0 0.0 15.3
2014-Apr-15 12:00N 41°06' W 036°07'0 0.0 15.3
2014-Apr-15 11:15N 41°06' W 036°07'0 0.0 15.3
2014-Apr-15 10:30N 41°06' W 036°07'0 0.0 15.3
2014-Apr-15 10:15N 41°06' W 036°07'0 0.0 15.3
2014-Apr-15 09:00N 41°06' W 036°07'0 1.7 15.3
2014-Apr-15 08:45N 41°06' W 036°07'0 0.0 15.3
2014-Apr-15 08:15N 41°06' W 036°07'0 1.7 15.4
2014-Apr-15 08:00N 41°06' W 036°08'0 0.7 15.4
2014-Apr-15 07:45N 41°06' W 036°08'0 0.3 15.4
2014-Apr-15 07:15N 41°06' W 036°08'0 0.2 15.4
2014-Apr-15 06:30N 41°06' W 036°08'0 0.7 15.4
2014-Apr-15 06:15N 41°06' W 036°08'0 0.0 15.4
2014-Apr-15 06:00N 41°06' W 036°08'0 0.4 15.4
2014-Apr-15 05:00N 41°06' W 036°07'1 2.0 15.4
2014-Apr-15 04:45N 41°05' W 036°08'1 0.4 15.4
2014-Apr-15 03:15N 41°05' W 036°08'0 0.0 15.4
2014-Apr-15 00:00N 41°05' W 036°08'0 0.0 15.4
2014-Apr-14 23:45N 41°05' W 036°08'0 0.0 15.4
2014-Apr-14 23:30N 41°05' W 036°08'1 1.5 15.4
2014-Apr-14 23:00N 41°04' W 036°09'0 0.5 15.4
2014-Apr-14 22:15N 41°04' W 036°09'0 0.0 15.5
2014-Apr-14 22:00N 41°04' W 036°09'0 0.0 15.5
2014-Apr-14 21:00N 41°04' W 036°09'0 0.0 15.6
2014-Apr-14 20:45N 41°04' W 036°09'0 0.0 15.6
2014-Apr-14 20:30N 41°04' W 036°09'0 0.0 15.6
2014-Apr-14 19:30N 41°04' W 036°09'0 0.8 15.6
2014-Apr-14 19:15N 41°04' W 036°09'0 0.2 15.7
2014-Apr-14 19:00N 41°04' W 036°09'0 0.4 15.7
2014-Apr-14 18:45N 41°04' W 036°09'0 0.3 15.7
2014-Apr-14 18:00N 41°04' W 036°09'0 0.0 15.8
2014-Apr-14 17:45N 41°04' W 036°09'1 1.7 15.8
2014-Apr-14 17:15N 41°04' W 036°10'0 0.0 15.9
2014-Apr-14 16:30N 41°04' W 036°10'1 4.1 15.9
2014-Apr-14 16:15N 41°03' W 036°11'0 0.0 15.9
2014-Apr-14 16:00N 41°03' W 036°11'0 0.1 15.9
2014-Apr-14 15:00N 41°03' W 036°11'0 0.0 15.9
2014-Apr-14 14:45N 41°03' W 036°11'1 0.8 15.9
2014-Apr-14 14:00N 41°03' W 036°12'2 1.1 15.8
2014-Apr-14 12:15N 41°02' W 036°14'0 0.0 15.7
2014-Apr-14 11:45N 41°02' W 036°14'0 0.0 15.7
2014-Apr-14 11:30N 41°02' W 036°14'0 0.0 15.7
2014-Apr-14 10:45N 41°02' W 036°14'0 0.0 15.7
2014-Apr-14 09:15N 41°02' W 036°14'0 0.0 15.7
2014-Apr-14 08:45N 41°02' W 036°14'0 0.2 15.7
2014-Apr-14 08:15N 41°02' W 036°14'0 1.0 15.7
2014-Apr-14 08:00N 41°02' W 036°14'0 0.0 15.7
2014-Apr-14 07:45N 41°02' W 036°14'0 0.9 15.7
2014-Apr-14 07:30N 41°02' W 036°14'0 0.0 15.7
2014-Apr-14 07:00N 41°02' W 036°14'0 1.3 15.7
2014-Apr-14 06:45N 41°02' W 036°15'0 1.1 15.7
2014-Apr-14 06:30N 41°02' W 036°15'0 1.2 15.7
2014-Apr-14 06:15N 41°02' W 036°15'0 0.0 15.7
2014-Apr-14 06:00N 41°02' W 036°15'0 0.0 15.7
2014-Apr-14 05:15N 41°02' W 036°15'1 2.3 15.7
2014-Apr-14 05:00N 41°01' W 036°16'1 0.5 15.7
2014-Apr-14 03:30N 41°02' W 036°17'1 4.8 15.7
2014-Apr-14 03:15N 41°01' W 036°17'0 0.0 15.7
2014-Apr-14 00:15N 41°01' W 036°17'1 2.0 15.7
2014-Apr-14 00:00N 41°00' W 036°18'0 0.0 15.7
2014-Apr-13 23:30N 41°00' W 036°18'0 1.3 15.7
2014-Apr-13 23:15N 41°00' W 036°18'0 0.3 15.7
2014-Apr-13 22:30N 41°00' W 036°18'0 0.0 15.7
2014-Apr-13 22:15N 41°00' W 036°18'1 0.7 15.7
2014-Apr-13 21:15N 40°60' W 036°18'0 0.0 15.7
2014-Apr-13 19:45N 40°60' W 036°18'1 0.3 15.8
2014-Apr-13 15:00N 40°59' W 036°20'1 0.9 15.8
2014-Apr-13 14:15N 40°58' W 036°21'0 0.1 15.7
2014-Apr-13 12:45N 40°58' W 036°21'0 0.0 15.7
2014-Apr-13 12:30N 40°58' W 036°21'0 0.4 15.7
2014-Apr-13 12:00N 40°58' W 036°21'1 0.9 15.7
2014-Apr-13 11:00N 40°57' W 036°21'0 0.0 15.7
2014-Apr-13 10:45N 40°57' W 036°21'0 0.4 15.6
2014-Apr-13 09:45N 40°58' W 036°21'0 0.0 15.7
2014-Apr-13 09:30N 40°58' W 036°21'0 1.5 15.7
2014-Apr-13 09:15N 40°57' W 036°21'0 0.2 15.7
2014-Apr-13 08:15N 40°58' W 036°21'0 0.0 15.6
2014-Apr-13 07:45N 40°58' W 036°21'0 0.0 15.6
2014-Apr-13 07:30N 40°58' W 036°21'0 0.0 15.7
2014-Apr-13 06:45N 40°58' W 036°21'0 0.4 15.7
2014-Apr-13 06:30N 40°58' W 036°21'0 0.0 15.7
2014-Apr-13 06:00N 40°58' W 036°21'0 0.4 15.7
2014-Apr-13 05:15N 40°58' W 036°21'0 0.0 15.7
2014-Apr-13 05:00N 40°58' W 036°21'0 0.0 15.7
2014-Apr-13 04:45N 40°58' W 036°21'2 1.2 15.7
2014-Apr-13 03:30N 40°56' W 036°23'0 0.1 15.7
2014-Apr-13 00:30N 40°57' W 036°22'0 1.0 15.7
2014-Apr-13 00:15N 40°56' W 036°22'1 1.1 15.7
2014-Apr-12 23:45N 40°56' W 036°23'0 0.0 15.7
2014-Apr-12 23:30N 40°56' W 036°23'1 1.4 15.7
2014-Apr-12 22:45N 40°55' W 036°22'1 5.8 15.7
2014-Apr-12 22:30N 40°56' W 036°24'1 2.9 15.7
2014-Apr-12 22:00N 40°55' W 036°22'0 0.3 15.7
2014-Apr-12 20:15N 40°55' W 036°22'0 0.0 15.7
2014-Apr-12 19:45N 40°55' W 036°22'0 0.3 15.7
2014-Apr-12 18:15N 40°55' W 036°21'0 1.3 15.8
2014-Apr-12 18:00N 40°55' W 036°22'0 0.3 15.8
2014-Apr-12 17:00N 40°55' W 036°21'0 1.1 15.8
2014-Apr-12 16:45N 40°55' W 036°21'0 0.0 15.8
2014-Apr-12 16:30N 40°55' W 036°21'0 0.0 15.8
2014-Apr-12 15:15N 40°55' W 036°21'0 0.0 15.8
2014-Apr-12 15:00N 40°55' W 036°21'0 0.2 15.7
2014-Apr-12 13:30N 40°55' W 036°21'0 0.0 15.7
2014-Apr-12 13:00N 40°55' W 036°21'0 0.7 15.7
2014-Apr-12 12:45N 40°54' W 036°21'0 0.2 15.7
2014-Apr-12 12:15N 40°55' W 036°21'1 0.8 15.7
2014-Apr-12 11:30N 40°55' W 036°22'1 5.8 15.7
2014-Apr-12 11:15N 40°54' W 036°22'0 0.0 15.7
2014-Apr-12 11:00N 40°54' W 036°22'0 0.2 15.7
2014-Apr-12 09:45N 40°54' W 036°22'1 0.6 15.6
2014-Apr-12 08:30N 40°53' W 036°22'0 0.0 15.6
2014-Apr-12 08:15N 40°53' W 036°22'0 1.8 15.6
2014-Apr-12 08:00N 40°54' W 036°22'0 0.4 15.7
2014-Apr-12 06:45N 40°53' W 036°22'0 0.6 15.7
2014-Apr-12 06:30N 40°53' W 036°22'1 1.2 15.7
2014-Apr-12 05:30N 40°52' W 036°22'0 0.0 15.7
2014-Apr-12 05:15N 40°52' W 036°22'0 0.0 15.7
2014-Apr-12 05:00N 40°52' W 036°22'2 1.8 15.7
2014-Apr-12 03:45N 40°50' W 036°22'1 0.3 15.7
2014-Apr-12 00:30N 40°50' W 036°21'0 0.0 15.7
2014-Apr-12 00:00N 40°50' W 036°21'0 0.0 15.7
2014-Apr-11 23:15N 40°50' W 036°21'0 0.3 15.6
2014-Apr-11 23:00N 40°50' W 036°21'0 0.0 15.6
2014-Apr-11 22:45N 40°50' W 036°21'2 0.7 15.7
2014-Apr-11 20:15N 40°48' W 036°19'0 0.0 15.7
2014-Apr-11 19:00N 40°48' W 036°19'0 0.7 15.9
2014-Apr-11 18:30N 40°49' W 036°19'0 0.7 15.8
2014-Apr-11 18:15N 40°48' W 036°19'1 0.4 15.8
2014-Apr-11 17:00N 40°48' W 036°19'1 0.4 15.8
2014-Apr-11 15:30N 40°47' W 036°19'0 0.0 15.6
2014-Apr-11 15:15N 40°47' W 036°19'2 1.1 15.5
2014-Apr-11 13:45N 40°47' W 036°17'0 0.6 15.5
2014-Apr-11 13:00N 40°47' W 036°17'0 0.0 15.4
2014-Apr-11 12:45N 40°47' W 036°17'0 0.6 15.4
2014-Apr-11 12:30N 40°46' W 036°16'0 0.4 15.4
2014-Apr-11 11:45N 40°47' W 036°17'0 1.7 15.4
2014-Apr-11 11:30N 40°46' W 036°17'2 6.2 15.3
2014-Apr-11 11:15N 40°45' W 036°16'0 0.1 15.3
2014-Apr-11 09:00N 40°45' W 036°15'0 0.7 15.3
2014-Apr-11 08:45N 40°45' W 036°16'1 5.5 15.3
2014-Apr-11 08:30N 40°44' W 036°14'0 0.2 15.3
2014-Apr-11 07:15N 40°44' W 036°15'1 3.3 15.3
2014-Apr-11 07:00N 40°44' W 036°14'1 3.3 15.3
2014-Apr-11 06:45N 40°44' W 036°15'1 0.8 15.4
2014-Apr-11 05:45N 40°44' W 036°14'0 0.0 15.4
2014-Apr-11 05:15N 40°44' W 036°14'2 1.2 15.5
2014-Apr-11 04:00N 40°43' W 036°12'0 0.0 15.6
2014-Apr-11 03:45N 40°43' W 036°12'0 0.0 15.6
2014-Apr-11 01:00N 40°43' W 036°12'0 0.0 16.0
2014-Apr-11 00:45N 40°43' W 036°12'1 0.4 16.0
2014-Apr-10 23:00N 40°42' W 036°12'0 0.0 15.7
2014-Apr-10 22:45N 40°42' W 036°12'1 5.5 15.7
2014-Apr-10 22:30N 40°42' W 036°10'0 0.0 15.7
2014-Apr-10 21:45N 40°42' W 036°10'0 0.0 15.7
2014-Apr-10 21:15N 40°42' W 036°10'0 0.3 15.8
2014-Apr-10 20:45N 40°42' W 036°10'0 0.0 15.8
2014-Apr-10 20:30N 40°42' W 036°10'   15.9

Dump ship's entire track history

sailing weather and tide predictions

Buoy 41997